地図

経路データ

SID SEASON NUMBER BASIN SUBBASIN NAME ISO_TIME NATURE LAT LON WMO_WIND WMO_PRES WMO_AGENCY TRACK_TYPE DIST2LAND LANDFALL IFLAG USA_AGENCY USA_ATCF_ID USA_LAT USA_LON USA_RECORD USA_STATUS USA_WIND USA_PRES USA_SSHS USA_R34_NE USA_R34_SE USA_R34_SW USA_R34_NW USA_R50_NE USA_R50_SE USA_R50_SW USA_R50_NW USA_R64_NE USA_R64_SE USA_R64_SW USA_R64_NW USA_POCI USA_ROCI USA_RMW USA_EYE TOKYO_LAT TOKYO_LON TOKYO_GRADE TOKYO_WIND TOKYO_PRES TOKYO_R50_DIR TOKYO_R50_LONG TOKYO_R50_SHORT TOKYO_R30_DIR TOKYO_R30_LONG TOKYO_R30_SHORT TOKYO_LAND CMA_LAT CMA_LON CMA_CAT CMA_WIND CMA_PRES HKO_LAT HKO_LON HKO_CAT HKO_WIND HKO_PRES NEWDELHI_LAT NEWDELHI_LON NEWDELHI_GRADE NEWDELHI_WIND NEWDELHI_PRES NEWDELHI_CI NEWDELHI_DP NEWDELHI_POCI REUNION_LAT REUNION_LON REUNION_TYPE REUNION_WIND REUNION_PRES REUNION_TNUM REUNION_CI REUNION_RMW REUNION_R34_NE REUNION_R34_SE REUNION_R34_SW REUNION_R34_NW REUNION_R50_NE REUNION_R50_SE REUNION_R50_SW REUNION_R50_NW REUNION_R64_NE REUNION_R64_SE REUNION_R64_SW REUNION_R64_NW BOM_LAT BOM_LON BOM_TYPE BOM_WIND BOM_PRES BOM_TNUM BOM_CI BOM_RMW BOM_R34_NE BOM_R34_SE BOM_R34_SW BOM_R34_NW BOM_R50_NE BOM_R50_SE BOM_R50_SW BOM_R50_NW BOM_R64_NE BOM_R64_SE BOM_R64_SW BOM_R64_NW BOM_ROCI BOM_POCI BOM_EYE BOM_POS_METHOD BOM_PRES_METHOD NADI_LAT NADI_LON NADI_CAT NADI_WIND NADI_PRES WELLINGTON_LAT WELLINGTON_LON WELLINGTON_WIND WELLINGTON_PRES DS824_LAT DS824_LON DS824_STAGE DS824_WIND DS824_PRES TD9636_LAT TD9636_LON TD9636_STAGE TD9636_WIND TD9636_PRES TD9635_LAT TD9635_LON TD9635_WIND TD9635_PRES TD9635_ROCI NEUMANN_LAT NEUMANN_LON NEUMANN_CLASS NEUMANN_WIND NEUMANN_PRES MLC_LAT MLC_LON MLC_CLASS MLC_WIND MLC_PRES USA_GUST BOM_GUST BOM_GUST_PER REUNION_GUST REUNION_GUST_PER USA_SEAHGT USA_SEARAD_NE USA_SEARAD_SE USA_SEARAD_SW USA_SEARAD_NW STORM_SPEED STORM_DIR
1941347N06134 1941 71 WP MM NOT_NAMED 1941-12-12 12:00:00 NR 5.60000 134.200 main 685 683 __________O___ -1 5.60000 134.200 4 7 312
1941347N06134 1941 71 WP MM NOT_NAMED 1941-12-12 15:00:00 NR 5.82350 133.950 main 694 679 __________P___ -1 5.82350 133.950 4 7 311
1941347N06134 1941 71 WP MM NOT_NAMED 1941-12-12 18:00:00 NR 6.04757 133.690 main 679 666 __________P___ -1 6.04757 133.690 4 7 310
1941347N06134 1941 71 WP MM NOT_NAMED 1941-12-12 21:00:00 NR 6.27286 133.410 main 673 662 __________P___ -1 6.27286 133.410 4 7 308
1941347N06134 1941 71 WP MM NOT_NAMED 1941-12-13 00:00:00 NR 6.50000 133.100 main 662 654 __________O___ -1 6.50000 133.100 4 8 305
1941347N06134 1941 71 WP MM NOT_NAMED 1941-12-13 03:00:00 NR 6.72899 132.752 main 654 641 __________P___ -1 6.72899 132.752 4 9 302
1941347N06134 1941 71 WP MM NOT_NAMED 1941-12-13 06:00:00 NR 6.95737 132.367 main 641 596 __________P___ -1 6.95737 132.367 4 9 300
1941347N06134 1941 71 WP MM NOT_NAMED 1941-12-13 09:00:00 NR 7.18206 131.949 main 585 540 __________P___ -1 7.18206 131.949 4 10 297
1941347N06134 1941 71 WP MM NOT_NAMED 1941-12-13 12:00:00 NR 7.40000 131.500 main 540 485 __________O___ -1 7.40000 131.500 4 10 295
1941347N06134 1941 71 WP MM NOT_NAMED 1941-12-13 15:00:00 NR 7.62768 131.000 main 485 430 __________P___ -1 7.62768 131.000 4 11 294
1941347N06134 1941 71 WP MM NOT_NAMED 1941-12-13 18:00:00 NR 7.84528 130.478 main 430 376 __________P___ -1 7.84528 130.478 4 11 292
1941347N06134 1941 71 WP MM NOT_NAMED 1941-12-13 21:00:00 NR 8.04021 129.966 main 376 324 __________P___ -1 8.04021 129.966 4 10 290
1941347N06134 1941 71 WP MM NOT_NAMED 1941-12-14 00:00:00 NR 8.20000 129.500 main 324 294 __________O___ -1 8.20000 129.500 4 9 289
1941347N06134 1941 71 WP MM NOT_NAMED 1941-12-14 03:00:00 NR 8.31860 129.145 main 283 265 __________P___ -1 8.31860 129.145 4 7 287
1941347N06134 1941 71 WP MM NOT_NAMED 1941-12-14 06:00:00 NR 8.40187 128.835 main 254 227 __________P___ -1 8.40187 128.835 4 6 283
1941347N06134 1941 71 WP MM NOT_NAMED 1941-12-14 09:00:00 NR 8.45924 128.532 main 227 197 __________P___ -1 8.45924 128.532 4 6 279
1941347N06134 1941 71 WP MM NOT_NAMED 1941-12-14 12:00:00 NR 8.50000 128.200 main 197 155 __________O___ -1 8.50000 128.200 4 7 276
1941347N06134 1941 71 WP MM NOT_NAMED 1941-12-14 15:00:00 NR 8.53910 127.818 main 155 115 __________P___ -1 8.53910 127.818 4 8 275
1941347N06134 1941 71 WP MM NOT_NAMED 1941-12-14 18:00:00 NR 8.56454 127.397 main 115 74 __________P___ -1 8.56454 127.397 4 9 273
1941347N06134 1941 71 WP MM NOT_NAMED 1941-12-14 21:00:00 NR 8.58272 126.928 main 64 24 __________P___ -1 8.58272 126.928 4 10 272
1941347N06134 1941 71 WP MM NOT_NAMED 1941-12-15 00:00:00 NR 8.60000 126.400 main 24 0 __________O___ -1 8.60000 126.400 4 11 272
1941347N06134 1941 71 WP MM NOT_NAMED 1941-12-15 03:00:00 NR 8.62911 125.812 main 0 0 __________P___ -1 8.62911 125.812 4 12 273
1941347N06134 1941 71 WP MM NOT_NAMED 1941-12-15 06:00:00 NR 8.65752 125.167 main 0 0 __________P___ -1 8.65752 125.167 4 13 272
1941347N06134 1941 71 WP MM NOT_NAMED 1941-12-15 09:00:00 NR 8.68215 124.490 main 22 11 __________P___ -1 8.68215 124.490 4 14 272
1941347N06134 1941 71 WP MM NOT_NAMED 1941-12-15 12:00:00 NR 8.70000 123.800 main 11 11 __________O___ -1 8.70000 123.800 4 13 270
1941347N06134 1941 71 WP MM NOT_NAMED 1941-12-15 15:00:00 NR 8.69044 123.148 main 31 31 __________P___ -1 8.69044 123.148 4 13 269
1941347N06134 1941 71 WP MM NOT_NAMED 1941-12-15 18:00:00 NR 8.67677 122.487 main 62 62 __________P___ -1 8.67677 122.487 4 13 269
1941347N06134 1941 71 WP MM NOT_NAMED 1941-12-15 21:00:00 NR 8.67474 121.807 main 89 89 __________P___ -1 8.67474 121.807 4 14 271
1941347N06134 1941 71 WP MM NOT_NAMED 1941-12-16 00:00:00 NR 8.70000 121.100 main 144 144 __________O___ -1 8.70000 121.100 4 15 273
1941347N06134 1941 71 WP MM NOT_NAMED 1941-12-16 03:00:00 NR 8.73884 120.333 main 197 133 __________P___ -1 8.73884 120.333 4 15 274
1941347N06134 1941 71 WP MM NOT_NAMED 1941-12-16 06:00:00 NR 8.81017 119.542 main 125 62 __________P___ -1 8.81017 119.542 4 16 277
1941347N06134 1941 71 WP MM NOT_NAMED 1941-12-16 09:00:00 NR 8.92636 118.755 main 62 0 __________P___ -1 8.92636 118.755 4 16 281
1941347N06134 1941 71 WP MM NOT_NAMED 1941-12-16 12:00:00 NR 9.10000 118.000 main 0 0 __________O___ -1 9.10000 118.000 4 16 286
1941347N06134 1941 71 WP MM NOT_NAMED 1941-12-16 15:00:00 NR 9.34256 117.238 main 55 55 __________P___ -1 9.34256 117.238 4 16 290
1941347N06134 1941 71 WP MM NOT_NAMED 1941-12-16 18:00:00 NR 9.64025 116.521 main 134 134 __________P___ -1 9.64025 116.521 4 15 295
1941347N06134 1941 71 WP MM NOT_NAMED 1941-12-16 21:00:00 NR 9.96775 115.894 main 214 214 __________P___ -1 9.96775 115.894 4 13 301
1941347N06134 1941 71 WP MM NOT_NAMED 1941-12-17 00:00:00 NR 10.3000 115.400 main 278 278 __________O___ -1 10.3000 115.400 4 10 308
1941347N06134 1941 71 WP MM NOT_NAMED 1941-12-17 03:00:00 NR 10.6033 115.072 main 324 324 __________P___ -1 10.6033 115.072 4 8 320
1941347N06134 1941 71 WP MM NOT_NAMED 1941-12-17 06:00:00 NR 10.9066 114.877 main 362 362 __________P___ -1 10.9066 114.877 4 7 334
1941347N06134 1941 71 WP MM NOT_NAMED 1941-12-17 09:00:00 NR 11.2066 114.769 main 392 392 __________P___ -1 11.2066 114.769 4 6 344
1941347N06134 1941 71 WP MM NOT_NAMED 1941-12-17 12:00:00 NR 11.5000 114.700 main 422 422 __________O___ -1 11.5000 114.700 4 6 343
1941347N06134 1941 71 WP MM NOT_NAMED 1941-12-17 15:00:00 NR 11.7740 114.588 main 454 454 __________P___ -1 11.7740 114.588 4 6 341
1941347N06134 1941 71 WP MM NOT_NAMED 1941-12-17 18:00:00 NR 12.0424 114.505 main 477 477 __________P___ -1 12.0424 114.505 4 6 345
1941347N06134 1941 71 WP MM NOT_NAMED 1941-12-17 21:00:00 NR 12.3147 114.444 main 508 508 __________P___ -1 12.3147 114.444 4 6 349
1941347N06134 1941 71 WP MM NOT_NAMED 1941-12-18 00:00:00 NR 12.6000 114.400 main 531 531 __________O___ -1 12.6000 114.400 4 6 352
1941347N06134 1941 71 WP MM NOT_NAMED 1941-12-18 03:00:00 NR 12.9106 114.361 main 531 520 __________P___ -1 12.9106 114.361 4 6 353
1941347N06134 1941 71 WP MM NOT_NAMED 1941-12-18 06:00:00 NR 13.2350 114.335 main 521 521 __________P___ -1 13.2350 114.335 4 7 357
1941347N06134 1941 71 WP MM NOT_NAMED 1941-12-18 09:00:00 NR 13.5669 114.317 main 525 525 __________P___ -1 13.5669 114.317 4 7 356
1941347N06134 1941 71 WP MM NOT_NAMED 1941-12-18 12:00:00 NR 13.9000 114.300 main 531 531 __________O___ -1 13.9000 114.300 4 7 357
1941347N06134 1941 71 WP MM NOT_NAMED 1941-12-18 15:00:00 NR 14.2209 114.271 main 539 532 __________P___ -1 14.2209 114.271 4 6 355
1941347N06134 1941 71 WP MM NOT_NAMED 1941-12-18 18:00:00 NR 14.5425 114.243 main 532 532 __________P___ -1 14.5425 114.243 4 7 355
1941347N06134 1941 71 WP MM NOT_NAMED 1941-12-18 21:00:00 NR 14.8678 114.218 main 539 539 __________P___ -1 14.8678 114.218 4 7 357
1941347N06134 1941 71 WP MM NOT_NAMED 1941-12-19 00:00:00 NR 15.2000 114.200 main 547 539 __________O___ -1 15.2000 114.200 4 7 356
1941347N06134 1941 71 WP MM NOT_NAMED 1941-12-19 03:00:00 NR 15.5387 114.185 main 539 509 __________P___ -1 15.5387 114.185 4 7 358
1941347N06134 1941 71 WP MM NOT_NAMED 1941-12-19 06:00:00 NR 15.8850 114.178 main 509 488 __________P___ -1 15.8850 114.178 4 7 0
1941347N06134 1941 71 WP MM NOT_NAMED 1941-12-19 09:00:00 NR 16.2387 114.182 main 488 462 __________P___ -1 16.2387 114.182 4 7 2
1941347N06134 1941 71 WP MM NOT_NAMED 1941-12-19 12:00:00 NR 16.6000 114.200 main 462 440 __________O___ -1 16.6000 114.200 4 7 3
1941347N06134 1941 71 WP MM NOT_NAMED 1941-12-19 15:00:00 NR 16.9718 114.212 main 440 424 __________P___ -1 16.9718 114.212 4 8 3
1941347N06134 1941 71 WP MM NOT_NAMED 1941-12-19 18:00:00 NR 17.3499 114.240 main 424 407 __________P___ -1 17.3499 114.240 4 8 6
1941347N06134 1941 71 WP MM NOT_NAMED 1941-12-19 21:00:00 NR 17.7280 114.299 main 407 395 __________P___ -1 17.7280 114.299 4 8 11
1941347N06134 1941 71 WP MM NOT_NAMED 1941-12-20 00:00:00 NR 18.1000 114.400 main 395 387 __________O___ -1 18.1000 114.400 4 8 16
1941347N06134 1941 71 WP MM NOT_NAMED 1941-12-20 03:00:00 NR 18.4854 114.528 main 387 384 __________P___ -1 18.4854 114.528 4 8 21
1941347N06134 1941 71 WP MM NOT_NAMED 1941-12-20 06:00:00 NR 18.8596 114.702 main 379 352 __________P___ -1 18.8596 114.702 4 8 28
1941347N06134 1941 71 WP MM NOT_NAMED 1941-12-20 09:00:00 NR 19.2041 114.925 main 352 323 __________P___ -1 19.2041 114.925 4 8 36
1941347N06134 1941 71 WP MM NOT_NAMED 1941-12-20 12:00:00 NR 19.5000 115.200 main 326 312 __________O___ -1 19.5000 115.200 4 8 47
1941347N06134 1941 71 WP MM NOT_NAMED 1941-12-20 15:00:00 NR 19.7346 115.527 main 316 302 __________P___ -1 19.7346 115.527 4 8 57
1941347N06134 1941 71 WP MM NOT_NAMED 1941-12-20 18:00:00 NR 19.9185 115.895 main 308 293 __________P___ -1 19.9185 115.895 4 8 65
1941347N06134 1941 71 WP MM NOT_NAMED 1941-12-20 21:00:00 NR 20.0681 116.290 main 295 291 __________P___ -1 20.0681 116.290 4 8 70
1941347N06134 1941 71 WP MM NOT_NAMED 1941-12-21 00:00:00 NR 20.2000 116.700 main 294 __________O___ -1 20.2000 116.700 4 8 71

デジタル台風データ・検索

IBTrACS Databaseについて

本データベースは、米国NOAAが公開する1842年以降の世界の熱帯低気圧のベストトラックデータアーカイブInternational Best Track Archive for Climate Stewardship (IBTrACS)を、ウェブで閲覧しやすい形式に変換したものです。

最終更新日:2021-12-01